createdAt,value
2018-12-18T00:00:16.814Z,21.8
2018-12-18T00:01:19.266Z,21.8
2018-12-18T00:02:21.675Z,21.7
2018-12-18T00:03:24.107Z,21.7
2018-12-18T00:04:26.540Z,21.7
2018-12-18T00:05:28.956Z,21.7
2018-12-18T00:06:31.118Z,21.7
2018-12-18T00:07:33.540Z,21.7
2018-12-18T00:08:35.966Z,21.8
2018-12-18T00:09:38.390Z,21.8
2018-12-18T00:10:40.818Z,21.8
2018-12-18T00:11:42.983Z,21.8
2018-12-18T00:12:45.405Z,21.8
2018-12-18T00:13:47.828Z,21.8
2018-12-18T00:14:50.258Z,21.8
2018-12-18T00:15:52.688Z,21.9
2018-12-18T00:16:55.110Z,21.9
2018-12-18T00:17:56.992Z,21.9
2018-12-18T00:18:58.854Z,21.9
2018-12-18T00:20:01.273Z,21.8
2018-12-18T00:21:03.691Z,21.8
2018-12-18T00:22:06.121Z,21.8
2018-12-18T00:23:08.540Z,21.8
2018-12-18T00:24:10.960Z,21.8
2018-12-18T00:25:13.386Z,21.8
2018-12-18T00:26:15.818Z,21.8
2018-12-18T00:27:18.246Z,21.8
2018-12-18T00:28:20.101Z,21.8
2018-12-18T00:29:22.524Z,21.8
2018-12-18T00:30:24.668Z,21.8
2018-12-18T00:31:26.828Z,21.8
2018-12-18T00:32:29.254Z,21.8
2018-12-18T00:33:31.727Z,21.8
2018-12-18T00:34:34.157Z,21.9
2018-12-18T00:35:36.581Z,21.9
2018-12-18T00:36:39.022Z,21.9
2018-12-18T00:37:41.465Z,21.9
2018-12-18T00:38:43.888Z,21.9
2018-12-18T00:39:46.314Z,21.9
2018-12-18T00:40:48.734Z,22
2018-12-18T00:41:50.884Z,22
2018-12-18T00:42:52.750Z,22
2018-12-18T00:43:55.180Z,22
2018-12-18T00:44:57.610Z,22
2018-12-18T00:45:59.818Z,22
2018-12-18T00:47:01.970Z,22
2018-12-18T00:48:04.149Z,22
2018-12-18T00:49:06.567Z,22.1
2018-12-18T00:50:08.990Z,22.1
2018-12-18T00:51:11.410Z,22.1
2018-12-18T00:52:13.316Z,22.1
2018-12-18T00:53:15.732Z,22.1
2018-12-18T00:54:17.880Z,22.1
2018-12-18T00:55:20.034Z,22.1
2018-12-18T00:56:22.454Z,22.1
2018-12-18T00:57:24.338Z,22.1
2018-12-18T00:58:26.765Z,22.1
2018-12-18T00:59:29.200Z,22.1
2018-12-18T01:00:31.630Z,22.1
2018-12-18T01:01:33.510Z,22.1
2018-12-18T01:02:35.654Z,22.1
2018-12-18T01:03:38.079Z,22.1
2018-12-18T01:04:40.500Z,22.1
2018-12-18T01:05:42.936Z,22.2
2018-12-18T01:06:45.361Z,22.2
2018-12-18T01:08:52.757Z,22.1
2018-12-18T01:09:54.901Z,22.1
2018-12-18T01:10:57.320Z,22.2
2018-12-18T01:11:59.738Z,22.2
2018-12-18T01:13:02.159Z,22.2
2018-12-18T01:14:04.306Z,22.2
2018-12-18T01:15:06.728Z,22.2
2018-12-18T01:16:08.900Z,22.2
2018-12-18T01:17:11.347Z,22.2
2018-12-18T01:18:13.200Z,22.2
2018-12-18T01:19:15.629Z,22.2
2018-12-18T01:20:17.505Z,22.2
2018-12-18T01:21:19.922Z,22.2
2018-12-18T01:22:22.117Z,22.2
2018-12-18T01:23:24.549Z,22.2
2018-12-18T01:24:26.984Z,22.2
2018-12-18T01:25:29.122Z,22.2
2018-12-18T01:26:31.540Z,22.2
2018-12-18T01:27:33.419Z,22.2
2018-12-18T01:28:35.553Z,22.2
2018-12-18T01:29:37.982Z,22.2
2018-12-18T01:30:40.127Z,22.2
2018-12-18T01:31:42.559Z,22.2
2018-12-18T01:32:44.977Z,22.2
2018-12-18T01:33:47.399Z,22.2
2018-12-18T01:34:49.248Z,22.2
2018-12-18T01:35:51.679Z,22.2
2018-12-18T01:36:53.820Z,22.2
2018-12-18T01:37:55.978Z,22.2
2018-12-18T01:38:58.411Z,22.2
2018-12-18T01:40:00.572Z,22.2
2018-12-18T01:41:02.987Z,22.2
2018-12-18T01:42:04.845Z,22.2
2018-12-18T01:43:06.983Z,22.2
2018-12-18T01:44:09.131Z,22.2
2018-12-18T01:45:11.263Z,22.2
2018-12-18T01:46:13.681Z,22.2
2018-12-18T01:47:15.535Z,22.2
2018-12-18T01:48:17.961Z,22.2
2018-12-18T01:49:20.110Z,22.2
2018-12-18T01:50:22.007Z,22.2
2018-12-18T01:51:24.430Z,22.2
2018-12-18T01:52:26.332Z,22.2
2018-12-18T01:53:28.455Z,22.2
2018-12-18T01:54:30.612Z,22.2
2018-12-18T01:55:32.766Z,22.2
2018-12-18T01:56:35.192Z,22.2
2018-12-18T01:57:37.618Z,22.2
2018-12-18T01:58:40.050Z,22.2
2018-12-18T01:59:42.470Z,22.2
2018-12-18T02:00:44.883Z,22.2
2018-12-18T02:01:47.043Z,22.2
2018-12-18T02:02:49.198Z,22.2
2018-12-18T02:03:51.353Z,22.2
2018-12-18T02:04:53.773Z,22.2
2018-12-18T02:05:56.197Z,22.2
2018-12-18T02:06:58.356Z,22.2
2018-12-18T02:08:00.513Z,22.2
2018-12-18T02:09:02.936Z,22.2
2018-12-18T02:10:05.386Z,22.2
2018-12-18T02:11:07.542Z,22.2
2018-12-18T02:12:09.702Z,22.2
2018-12-18T02:13:12.126Z,22.2
2018-12-18T02:14:14.271Z,22.2
2018-12-18T02:15:16.418Z,22.2
2018-12-18T02:16:18.835Z,22.2
2018-12-18T02:17:21.300Z,22.2
2018-12-18T02:18:23.754Z,22.2
2018-12-18T02:19:26.153Z,22.2
2018-12-18T02:20:28.034Z,22.2
2018-12-18T02:21:30.458Z,22.2
2018-12-18T02:22:32.882Z,22.2
2018-12-18T02:23:35.296Z,22.2
2018-12-18T02:24:37.722Z,22.2
2018-12-18T02:25:40.143Z,22.2
2018-12-18T02:26:42.300Z,22.2
2018-12-18T02:27:44.490Z,22.2
2018-12-18T02:28:46.619Z,22.2
2018-12-18T02:29:49.054Z,22.2
2018-12-18T02:30:51.483Z,22.2
2018-12-18T02:31:53.905Z,22.2
2018-12-18T02:32:56.323Z,22.2
2018-12-18T02:33:58.743Z,22.2
2018-12-18T02:35:00.913Z,22.2
2018-12-18T02:36:03.070Z,22.2
2018-12-18T02:37:05.494Z,22.2
2018-12-18T02:38:07.643Z,22.2
2018-12-18T02:39:10.071Z,22.2
2018-12-18T02:40:12.232Z,22.2
2018-12-18T02:41:14.652Z,22.2
2018-12-18T02:42:16.817Z,22.2
2018-12-18T02:43:18.701Z,22.2
2018-12-18T02:44:20.849Z,22.2
2018-12-18T02:45:23.006Z,22.2
2018-12-18T02:46:25.162Z,22.2
2018-12-18T02:47:27.603Z,22.3
2018-12-18T02:48:30.037Z,22.3
2018-12-18T02:49:32.457Z,22.2
2018-12-18T02:50:34.880Z,22.2
2018-12-18T02:51:37.330Z,22.2
2018-12-18T02:52:39.471Z,22.2
2018-12-18T02:53:41.344Z,22.3
2018-12-18T02:54:43.501Z,22.3
2018-12-18T02:55:45.923Z,22.3
2018-12-18T02:56:47.782Z,22.3
2018-12-18T02:57:50.212Z,22.3
2018-12-18T02:58:52.632Z,22.3
2018-12-18T02:59:54.766Z,22.3
2018-12-18T03:00:57.193Z,22.3
2018-12-18T03:01:59.616Z,22.3
2018-12-18T03:03:01.763Z,22.3
2018-12-18T03:04:04.183Z,22.3
2018-12-18T03:05:06.606Z,22.3
2018-12-18T03:06:09.029Z,22.3
2018-12-18T03:07:11.458Z,22.3
2018-12-18T03:08:13.610Z,22.3
2018-12-18T03:09:16.026Z,22.3
2018-12-18T03:10:18.452Z,22.3
2018-12-18T03:11:20.611Z,22.3
2018-12-18T03:12:22.769Z,22.3
2018-12-18T03:13:25.192Z,22.3
2018-12-18T03:14:27.347Z,22.3
2018-12-18T03:15:29.499Z,22.3
2018-12-18T03:16:31.937Z,22.3
2018-12-18T03:17:34.468Z,22.4
2018-12-18T03:18:36.893Z,22.4
2018-12-18T03:19:39.030Z,22.4
2018-12-18T03:20:41.195Z,22.4
2018-12-18T03:21:43.341Z,22.4
2018-12-18T03:22:45.774Z,22.4
2018-12-18T03:23:47.923Z,22.4
2018-12-18T03:24:49.813Z,22.4
2018-12-18T03:25:51.961Z,22.4
2018-12-18T03:26:54.121Z,22.4
2018-12-18T03:27:56.544Z,22.4
2018-12-18T03:28:58.792Z,22.4
2018-12-18T03:30:01.225Z,22.4
2018-12-18T03:31:03.660Z,22.4
2018-12-18T03:32:06.183Z,22.4
2018-12-18T03:33:08.064Z,22.4
2018-12-18T03:34:10.510Z,22.4
2018-12-18T03:35:12.673Z,22.4
2018-12-18T03:36:14.819Z,22.4
2018-12-18T03:37:16.702Z,22.4
2018-12-18T03:38:18.869Z,22.4
2018-12-18T03:39:21.290Z,22.4
2018-12-18T03:40:23.730Z,22.4
2018-12-18T03:41:26.179Z,22.4
2018-12-18T03:42:28.603Z,22.4
2018-12-18T03:43:31.035Z,22.4
2018-12-18T03:44:33.458Z,22.4
2018-12-18T03:45:35.604Z,22.4
2018-12-18T03:46:37.760Z,22.4
2018-12-18T03:47:40.182Z,22.4
2018-12-18T03:48:42.358Z,22.4
2018-12-18T03:49:44.223Z,22.4
2018-12-18T03:50:46.646Z,22.4
2018-12-18T03:51:49.064Z,22.4
2018-12-18T03:52:51.222Z,22.4
2018-12-18T03:53:53.647Z,22.4
2018-12-18T03:54:56.071Z,22.4
2018-12-18T03:55:57.963Z,22.4
2018-12-18T03:57:00.160Z,22.4
2018-12-18T03:58:02.368Z,22.4
2018-12-18T03:59:04.800Z,22.4
2018-12-18T04:00:06.939Z,22.4
2018-12-18T04:01:09.461Z,22.4
2018-12-18T04:02:11.619Z,22.4
2018-12-18T04:03:13.481Z,22.4
2018-12-18T04:04:15.918Z,22.4
2018-12-18T04:05:18.331Z,22.4
2018-12-18T04:06:20.758Z,22.4
2018-12-18T04:07:23.188Z,22.4
2018-12-18T04:08:25.619Z,22.4
2018-12-18T04:09:28.064Z,22.3
2018-12-18T04:10:31.958Z,22.3
2018-12-18T04:11:34.420Z,22.3
2018-12-18T04:12:36.601Z,22.3
2018-12-18T04:13:38.796Z,22.3
2018-12-18T04:14:40.399Z,22.3
2018-12-18T04:15:42.249Z,22.4
2018-12-18T04:16:44.671Z,22.3
2018-12-18T04:17:46.817Z,22.4
2018-12-18T04:18:49.013Z,22.3
2018-12-18T04:19:51.161Z,22.3
2018-12-18T04:20:53.592Z,22.4
2018-12-18T04:21:56.031Z,22.4
2018-12-18T04:22:58.446Z,22.4
2018-12-18T04:24:00.585Z,22.4
2018-12-18T04:25:03.067Z,22.4
2018-12-18T04:26:05.225Z,22.4
2018-12-18T04:27:07.637Z,22.4
2018-12-18T04:28:10.065Z,22.4
2018-12-18T04:29:12.481Z,22.4
2018-12-18T04:30:14.623Z,22.4
2018-12-18T04:31:17.041Z,22.4
2018-12-18T04:32:18.907Z,22.4
2018-12-18T04:33:21.058Z,22.3
2018-12-18T04:34:23.198Z,22.3
2018-12-18T04:35:25.625Z,22.3
2018-12-18T04:36:27.534Z,22.3
2018-12-18T04:37:29.674Z,22.3
2018-12-18T04:38:31.559Z,22.3
2018-12-18T04:39:33.997Z,22.3
2018-12-18T04:40:35.861Z,22.3
2018-12-18T04:41:38.279Z,22.3
2018-12-18T04:42:40.707Z,22.3
2018-12-18T04:43:43.370Z,22.3
2018-12-18T04:44:45.881Z,22.3
2018-12-18T04:45:48.332Z,22.3
2018-12-18T04:46:50.825Z,22.3
2018-12-18T04:47:53.275Z,22.3
2018-12-18T04:48:55.727Z,22.3
2018-12-18T04:49:58.192Z,22.3
2018-12-18T04:51:00.616Z,22.3
2018-12-18T04:52:03.055Z,22.3
2018-12-18T04:53:05.242Z,22.3
2018-12-18T04:54:07.715Z,22.3
2018-12-18T04:55:09.856Z,22.3
2018-12-18T04:56:11.178Z,22.3
2018-12-18T04:57:13.624Z,22.3
2018-12-18T04:58:16.047Z,22.3
2018-12-18T04:59:17.950Z,22.3
2018-12-18T05:00:20.392Z,22.3
2018-12-18T05:01:22.914Z,22.3
2018-12-18T05:02:25.103Z,22.3
2018-12-18T05:03:27.553Z,22.3
2018-12-18T05:04:29.689Z,22.3
2018-12-18T05:05:31.900Z,22.3
2018-12-18T05:06:34.332Z,22.3
2018-12-18T05:07:36.187Z,22.3
2018-12-18T05:08:38.042Z,22.3
2018-12-18T05:09:40.470Z,22.2
2018-12-18T05:10:42.618Z,22.3
2018-12-18T05:11:44.771Z,22.2
2018-12-18T05:12:46.899Z,22.2
2018-12-18T05:13:49.046Z,22.2
2018-12-18T05:14:51.472Z,22.3
2018-12-18T05:15:53.903Z,22.2
2018-12-18T05:16:56.323Z,22.2
2018-12-18T05:17:58.477Z,22.2
2018-12-18T05:19:00.906Z,22.2
2018-12-18T05:20:03.339Z,22.2
2018-12-18T05:21:05.481Z,22.2
2018-12-18T05:22:07.344Z,22.2
2018-12-18T05:23:09.497Z,22.2
2018-12-18T05:24:11.372Z,22.2
2018-12-18T05:25:13.798Z,22.2
2018-12-18T05:26:15.676Z,22.2
2018-12-18T05:27:18.110Z,22.2
2018-12-18T05:28:19.964Z,22.2
2018-12-18T05:29:22.383Z,22.2
2018-12-18T05:30:24.812Z,22.2
2018-12-18T05:31:26.962Z,22.2
2018-12-18T05:32:29.388Z,22.2
2018-12-18T05:33:31.532Z,22.2
2018-12-18T05:34:33.962Z,22.2
2018-12-18T05:35:36.134Z,22.2
2018-12-18T05:36:38.698Z,22.2
2018-12-18T05:37:40.572Z,22.1
2018-12-18T05:38:43.011Z,22.1
2018-12-18T05:39:45.491Z,22.1
2018-12-18T05:40:47.943Z,22.1
2018-12-18T05:41:50.387Z,22.1
2018-12-18T05:42:52.823Z,22.2
2018-12-18T05:43:54.696Z,22.1
2018-12-18T05:44:56.829Z,22.1
2018-12-18T05:45:59.268Z,22.1
2018-12-18T05:47:01.432Z,22.1
2018-12-18T05:48:03.583Z,22.1
2018-12-18T05:49:05.737Z,22.1
2018-12-18T05:50:07.879Z,22.1
2018-12-18T05:51:10.051Z,22.1
2018-12-18T05:52:12.211Z,22.1
2018-12-18T05:53:14.373Z,22.1
2018-12-18T05:54:16.248Z,22.1
2018-12-18T05:55:18.680Z,22.1
2018-12-18T05:56:20.870Z,22.1
2018-12-18T05:57:23.323Z,22.1
2018-12-18T05:58:25.531Z,22.1
2018-12-18T05:59:27.955Z,22.1
2018-12-18T06:00:30.153Z,22.1
2018-12-18T06:01:32.585Z,22.1
2018-12-18T06:02:35.017Z,22.1
2018-12-18T06:03:37.472Z,22.1
2018-12-18T06:04:39.899Z,22.1
2018-12-18T06:05:42.319Z,22.1
2018-12-18T06:06:44.515Z,22
2018-12-18T06:07:46.671Z,22
2018-12-18T06:08:48.543Z,22
2018-12-18T06:09:50.407Z,22
2018-12-18T06:10:52.573Z,22
2018-12-18T06:11:55.015Z,22
2018-12-18T06:12:57.445Z,22
2018-12-18T06:13:59.861Z,22
2018-12-18T06:15:02.295Z,22
2018-12-18T06:16:04.445Z,22.1
2018-12-18T06:17:06.870Z,22.1
2018-12-18T06:18:09.014Z,22.1
2018-12-18T06:19:11.173Z,22.1
2018-12-18T06:20:13.593Z,22.1
2018-12-18T06:21:15.766Z,22
2018-12-18T06:22:17.938Z,22
2018-12-18T06:23:20.358Z,22
2018-12-18T06:24:22.490Z,22
2018-12-18T06:25:24.917Z,22.1
2018-12-18T06:26:27.074Z,22.1
2018-12-18T06:27:29.507Z,22.1
2018-12-18T06:28:31.931Z,22
2018-12-18T06:29:34.108Z,22
2018-12-18T06:30:35.972Z,22
2018-12-18T06:31:38.403Z,22
2018-12-18T06:32:39.741Z,22
2018-12-18T06:33:41.900Z,22
2018-12-18T06:34:44.330Z,22
2018-12-18T06:35:46.461Z,22
2018-12-18T06:36:48.683Z,22
2018-12-18T06:37:50.846Z,22
2018-12-18T06:38:53.294Z,22
2018-12-18T06:39:55.721Z,22
2018-12-18T06:40:57.881Z,22
2018-12-18T06:42:00.304Z,22
2018-12-18T06:43:02.732Z,22
2018-12-18T06:44:04.902Z,22
2018-12-18T06:45:07.049Z,22
2018-12-18T06:46:09.481Z,22
2018-12-18T06:47:11.663Z,22
2018-12-18T06:48:14.103Z,22
2018-12-18T06:49:16.529Z,22
2018-12-18T06:50:18.682Z,22
2018-12-18T06:51:21.113Z,22
2018-12-18T06:52:23.251Z,22
2018-12-18T06:53:25.419Z,22
2018-12-18T06:54:27.861Z,22
2018-12-18T06:55:30.333Z,22
2018-12-18T06:56:32.513Z,22
2018-12-18T06:57:34.941Z,22
2018-12-18T06:58:37.071Z,22
2018-12-18T06:59:39.512Z,22
2018-12-18T07:00:41.373Z,22
2018-12-18T07:01:43.525Z,22
2018-12-18T07:02:45.964Z,22
2018-12-18T07:03:48.125Z,22
2018-12-18T07:04:50.308Z,22
2018-12-18T07:05:52.739Z,22
2018-12-18T07:06:54.881Z,22
2018-12-18T07:07:58.317Z,22
2018-12-18T07:09:00.474Z,22
2018-12-18T07:10:02.905Z,22
2018-12-18T07:11:05.336Z,22
2018-12-18T07:12:07.507Z,22
2018-12-18T07:13:09.931Z,22
2018-12-18T07:14:12.058Z,22
2018-12-18T07:15:14.212Z,22
2018-12-18T07:16:16.373Z,22
2018-12-18T07:17:18.802Z,22
2018-12-18T07:18:20.694Z,21.9
2018-12-18T07:19:23.136Z,21.9
2018-12-18T07:20:25.281Z,21.9
2018-12-18T07:21:27.415Z,21.9
2018-12-18T07:22:29.826Z,21.9
2018-12-18T07:23:31.436Z,21.9
2018-12-18T07:24:33.873Z,21.9
2018-12-18T07:25:36.289Z,21.9
2018-12-18T07:26:38.431Z,21.9
2018-12-18T07:27:40.869Z,21.9
2018-12-18T07:28:43.018Z,21.9
2018-12-18T07:29:45.456Z,21.9
2018-12-18T07:30:47.606Z,21.9
2018-12-18T07:31:49.776Z,21.9
2018-12-18T07:32:52.208Z,21.9
2018-12-18T07:33:54.357Z,21.9
2018-12-18T07:34:56.508Z,21.9
2018-12-18T07:35:58.665Z,21.9
2018-12-18T07:37:00.816Z,21.9
2018-12-18T07:38:02.704Z,21.9
2018-12-18T07:39:05.120Z,21.9
2018-12-18T07:40:07.273Z,21.9
2018-12-18T07:41:09.698Z,21.9
2018-12-18T07:42:11.576Z,21.9
2018-12-18T07:43:13.724Z,21.9
2018-12-18T07:44:15.874Z,21.9
2018-12-18T07:45:18.342Z,21.9
2018-12-18T07:46:20.250Z,21.9
2018-12-18T07:47:22.679Z,21.9
2018-12-18T07:48:24.856Z,21.9
2018-12-18T07:49:27.275Z,21.9
2018-12-18T07:50:29.705Z,21.9
2018-12-18T07:51:31.864Z,21.9
2018-12-18T07:52:34.294Z,21.9
2018-12-18T07:53:36.459Z,21.9
2018-12-18T07:54:38.609Z,21.9
2018-12-18T07:55:41.044Z,21.9
2018-12-18T07:56:42.922Z,21.9
2018-12-18T07:57:45.368Z,21.9
2018-12-18T07:58:47.788Z,21.9
2018-12-18T07:59:49.933Z,21.9
2018-12-18T08:00:52.354Z,21.9
2018-12-18T08:01:54.783Z,21.9
2018-12-18T08:02:57.205Z,21.9
2018-12-18T08:03:59.634Z,21.9
2018-12-18T08:05:01.546Z,21.9
2018-12-18T08:06:03.982Z,21.9
2018-12-18T08:07:06.412Z,21.9
2018-12-18T08:08:08.552Z,21.9
2018-12-18T08:09:10.443Z,21.9
2018-12-18T08:10:12.874Z,21.9
2018-12-18T08:11:15.027Z,21.9
2018-12-18T08:12:17.455Z,21.9
2018-12-18T08:13:19.870Z,21.9
2018-12-18T08:14:22.304Z,21.9
2018-12-18T08:15:24.737Z,21.9
2018-12-18T08:16:26.613Z,21.9
2018-12-18T08:17:28.764Z,21.9
2018-12-18T08:18:30.912Z,21.9
2018-12-18T08:19:33.072Z,21.9
2018-12-18T08:20:35.495Z,21.9
2018-12-18T08:21:37.654Z,21.9
2018-12-18T08:22:39.836Z,21.9
2018-12-18T08:23:41.706Z,21.9
2018-12-18T08:24:44.131Z,21.9
2018-12-18T08:25:46.288Z,21.9
2018-12-18T08:26:49.962Z,21.9
2018-12-18T08:27:52.099Z,21.9
2018-12-18T08:28:54.256Z,21.9
2018-12-18T08:29:56.684Z,21.9
2018-12-18T08:30:58.826Z,21.9
2018-12-18T08:32:00.980Z,21.9
2018-12-18T08:33:03.394Z,21.9
2018-12-18T08:34:05.554Z,21.9
2018-12-18T08:35:07.976Z,21.9
2018-12-18T08:36:10.394Z,21.9
2018-12-18T08:37:12.820Z,21.9
2018-12-18T08:38:15.249Z,21.9
2018-12-18T08:39:17.680Z,21.9
2018-12-18T08:40:20.125Z,21.9
2018-12-18T08:41:22.309Z,21.9
2018-12-18T08:42:24.176Z,21.9
2018-12-18T08:43:26.601Z,21.9
2018-12-18T08:44:29.033Z,21.9
2018-12-18T08:45:31.174Z,21.9
2018-12-18T08:46:33.593Z,21.9
2018-12-18T08:47:36.024Z,21.9
2018-12-18T08:48:38.440Z,21.9
2018-12-18T08:49:40.590Z,21.9
2018-12-18T08:50:42.744Z,21.9
2018-12-18T08:51:44.904Z,21.9
2018-12-18T08:52:47.064Z,21.9
2018-12-18T08:53:49.224Z,21.9
2018-12-18T08:54:51.642Z,21.9
2018-12-18T08:55:53.780Z,21.9
2018-12-18T08:56:55.945Z,21.9
2018-12-18T08:57:58.101Z,21.9
2018-12-18T08:59:00.557Z,21.9
2018-12-18T09:00:02.748Z,21.9
2018-12-18T09:01:34.498Z,21.9
2018-12-18T09:02:36.919Z,21.9
2018-12-18T09:03:39.350Z,21.9
2018-12-18T09:04:41.497Z,21.9
2018-12-18T09:05:44.256Z,21.9
2018-12-18T09:06:46.680Z,21.9
2018-12-18T09:07:48.552Z,21.9
2018-12-18T09:08:50.693Z,21.9
2018-12-18T09:09:53.128Z,21.9
2018-12-18T09:10:55.286Z,21.9
2018-12-18T09:11:57.756Z,21.9
2018-12-18T09:12:59.928Z,21.9
2018-12-18T09:14:01.802Z,21.9
2018-12-18T09:15:03.429Z,21.9
2018-12-18T09:16:05.582Z,21.9
2018-12-18T09:17:08.001Z,21.9
2018-12-18T09:18:10.164Z,21.9
2018-12-18T09:19:12.580Z,21.9
2018-12-18T09:20:15.022Z,21.9
2018-12-18T09:21:46.769Z,21.9
2018-12-18T09:22:49.208Z,21.9
2018-12-18T09:23:51.107Z,21.9
2018-12-18T09:24:53.539Z,21.9
2018-12-18T09:25:55.964Z,21.9
2018-12-18T09:26:58.493Z,21.9
2018-12-18T09:28:00.664Z,21.9
2018-12-18T09:29:02.822Z,21.9
2018-12-18T09:30:05.255Z,21.9
2018-12-18T09:31:07.685Z,21.9
2018-12-18T09:32:09.894Z,21.9
2018-12-18T09:33:12.320Z,21.9
2018-12-18T09:34:14.483Z,21.9
2018-12-18T09:35:16.904Z,21.9
2018-12-18T09:36:19.344Z,21.9
2018-12-18T09:37:21.223Z,21.9
2018-12-18T09:38:23.074Z,21.9
2018-12-18T09:39:25.254Z,21.9
2018-12-18T09:40:27.433Z,21.9
2018-12-18T09:41:29.602Z,21.9
2018-12-18T09:42:32.042Z,21.9
2018-12-18T09:43:33.944Z,21.9
2018-12-18T09:44:36.098Z,21.9
2018-12-18T09:45:38.535Z,21.9
2018-12-18T09:46:40.684Z,21.9
2018-12-18T09:47:43.123Z,21.9
2018-12-18T09:48:45.560Z,21.9
2018-12-18T09:49:47.715Z,21.9
2018-12-18T09:50:50.219Z,21.9
2018-12-18T09:51:52.652Z,21.9
2018-12-18T09:52:54.539Z,21.9
2018-12-18T09:53:56.704Z,21.9
2018-12-18T09:54:58.854Z,21.9
2018-12-18T09:56:01.277Z,21.9
2018-12-18T09:57:03.430Z,21.9
2018-12-18T09:58:05.632Z,21.9
2018-12-18T09:59:07.786Z,21.9
2018-12-18T10:00:10.212Z,21.9
2018-12-18T10:01:12.418Z,21.9
2018-12-18T10:02:14.863Z,21.9
2018-12-18T10:03:17.021Z,21.9
2018-12-18T10:04:19.464Z,21.9
2018-12-18T10:05:21.889Z,21.9
2018-12-18T10:06:24.055Z,21.9
2018-12-18T10:07:26.475Z,21.9
2018-12-18T10:08:28.633Z,21.9
2018-12-18T10:09:30.498Z,21.9
2018-12-18T10:10:32.383Z,21.9
2018-12-18T10:11:34.526Z,21.9
2018-12-18T10:12:36.954Z,21.9
2018-12-18T10:13:39.383Z,21.9
2018-12-18T10:14:41.554Z,21.9
2018-12-18T10:15:43.982Z,21.9
2018-12-18T10:16:46.423Z,21.9
2018-12-18T10:17:48.557Z,21.9
2018-12-18T10:18:50.441Z,21.9
2018-12-18T10:19:52.616Z,21.9
2018-12-18T10:20:55.047Z,21.9
2018-12-18T10:21:57.481Z,21.9
2018-12-18T10:22:59.909Z,21.9
2018-12-18T10:24:02.347Z,21.9
2018-12-18T10:25:04.503Z,21.9
2018-12-18T10:26:06.656Z,21.9
2018-12-18T10:27:09.081Z,21.9
2018-12-18T10:28:11.224Z,21.9
2018-12-18T10:29:13.654Z,21.9
2018-12-18T10:30:16.074Z,21.9
2018-12-18T10:31:18.504Z,21.9
2018-12-18T10:32:20.665Z,21.9
2018-12-18T10:33:23.086Z,21.9
2018-12-18T10:34:24.671Z,21.9
2018-12-18T10:35:26.830Z,21.9
2018-12-18T10:36:29.257Z,21.9
2018-12-18T10:37:31.687Z,21.9
2018-12-18T10:38:33.837Z,21.9
2018-12-18T10:39:35.989Z,21.9
2018-12-18T10:40:38.428Z,21.9
2018-12-18T10:41:40.548Z,21.9
2018-12-18T10:42:42.695Z,21.9
2018-12-18T10:43:44.860Z,21.9
2018-12-18T10:44:47.311Z,21.9
2018-12-18T10:45:49.739Z,21.9
2018-12-18T10:46:52.221Z,21.9
2018-12-18T10:47:54.362Z,21.9
2018-12-18T10:48:56.519Z,21.9
2018-12-18T10:49:58.661Z,21.9
2018-12-18T10:51:01.095Z,21.9
2018-12-18T10:52:03.523Z,21.9
2018-12-18T10:53:05.954Z,21.9
2018-12-18T10:54:08.098Z,21.9
2018-12-18T10:55:10.523Z,21.9
2018-12-18T10:56:12.943Z,21.9
2018-12-18T10:57:15.101Z,21.9
2018-12-18T10:59:22.997Z,21.9
2018-12-18T11:00:25.435Z,21.9
2018-12-18T11:01:27.860Z,21.9
2018-12-18T11:02:30.020Z,21.9
2018-12-18T11:03:32.192Z,21.9
2018-12-18T11:04:34.632Z,21.9
2018-12-18T11:05:36.236Z,21.9
2018-12-18T11:06:38.665Z,21.9
2018-12-18T11:07:41.082Z,21.9
2018-12-18T11:08:43.506Z,21.9
2018-12-18T11:09:45.927Z,21.9
2018-12-18T11:10:48.361Z,21.9
2018-12-18T11:11:50.492Z,21.9
2018-12-18T11:12:52.635Z,21.9
2018-12-18T11:13:54.795Z,21.9
2018-12-18T11:14:57.235Z,21.9
2018-12-18T11:15:59.373Z,21.9
2018-12-18T11:17:01.526Z,21.9
2018-12-18T11:18:03.950Z,21.9
2018-12-18T11:19:05.835Z,21.9
2018-12-18T11:20:07.988Z,21.9
2018-12-18T11:21:10.418Z,21.9
2018-12-18T11:22:12.563Z,21.9
2018-12-18T11:23:14.731Z,21.9
2018-12-18T11:24:16.320Z,21.9
2018-12-18T11:25:18.482Z,21.9
2018-12-18T11:26:20.659Z,21.9
2018-12-18T11:27:22.837Z,21.9
2018-12-18T11:28:24.973Z,21.9
2018-12-18T11:29:27.392Z,21.9
2018-12-18T11:30:29.823Z,21.9
2018-12-18T11:31:31.764Z,21.9
2018-12-18T11:32:34.194Z,21.9
2018-12-18T11:33:36.671Z,21.9
2018-12-18T11:34:38.852Z,21.9
2018-12-18T11:35:41.282Z,21.9
2018-12-18T11:36:43.703Z,21.9
2018-12-18T11:37:45.879Z,21.9
2018-12-18T11:38:48.294Z,21.9
2018-12-18T11:39:50.515Z,21.9
2018-12-18T11:40:52.939Z,21.9
2018-12-18T11:41:55.094Z,21.9
2018-12-18T11:42:57.527Z,21.9
2018-12-18T11:43:59.705Z,21.9
2018-12-18T11:45:01.863Z,21.9
2018-12-18T11:46:04.003Z,21.9
2018-12-18T11:47:06.162Z,21.8
2018-12-18T11:48:08.324Z,21.9
2018-12-18T11:49:10.211Z,21.9
2018-12-18T11:50:12.364Z,21.9
2018-12-18T11:51:13.963Z,21.9
2018-12-18T11:52:16.119Z,21.9
2018-12-18T11:53:18.548Z,21.9
2018-12-18T11:54:20.981Z,21.9
2018-12-18T11:55:23.421Z,21.9
2018-12-18T11:56:25.852Z,21.9
2018-12-18T11:57:28.013Z,21.8
2018-12-18T11:58:30.173Z,21.8
2018-12-18T11:59:32.608Z,21.8
2018-12-18T12:00:35.022Z,21.8
2018-12-18T12:01:37.194Z,21.8
2018-12-18T12:03:44.597Z,21.8
2018-12-18T12:04:47.032Z,21.8
2018-12-18T12:05:49.172Z,21.8
2018-12-18T12:06:51.339Z,21.8
2018-12-18T12:07:53.763Z,21.8
2018-12-18T12:08:56.199Z,21.8
2018-12-18T12:09:58.346Z,21.8
2018-12-18T12:11:00.772Z,21.8
2018-12-18T12:12:02.662Z,21.9
2018-12-18T12:13:04.852Z,21.9
2018-12-18T12:14:07.285Z,21.9
2018-12-18T12:15:09.709Z,21.9
2018-12-18T12:16:12.135Z,21.9
2018-12-18T12:17:14.560Z,21.9
2018-12-18T12:18:16.988Z,21.9
2018-12-18T12:19:19.412Z,21.9
2018-12-18T12:20:21.876Z,21.9
2018-12-18T12:21:24.311Z,21.9
2018-12-18T12:22:26.743Z,21.9
2018-12-18T12:23:29.172Z,21.9
2018-12-18T12:24:31.607Z,21.9
2018-12-18T12:25:34.042Z,21.9
2018-12-18T12:26:35.905Z,21.9
2018-12-18T12:27:38.366Z,21.9
2018-12-18T12:28:40.771Z,21.9
2018-12-18T12:29:42.365Z,21.9
2018-12-18T12:30:44.535Z,21.9
2018-12-18T12:31:46.979Z,21.9
2018-12-18T12:32:49.405Z,21.9
2018-12-18T12:33:51.565Z,21.9
2018-12-18T12:34:54.020Z,21.9
2018-12-18T12:35:56.444Z,21.9
2018-12-18T12:36:58.870Z,21.9
2018-12-18T12:38:01.290Z,21.9
2018-12-18T12:39:03.724Z,21.9
2018-12-18T12:40:06.158Z,21.9
2018-12-18T12:41:08.303Z,21.9
2018-12-18T12:42:10.734Z,21.9
2018-12-18T12:43:13.170Z,21.9
2018-12-18T12:44:15.300Z,21.9
2018-12-18T12:45:17.722Z,21.9
2018-12-18T12:46:19.572Z,21.9
2018-12-18T12:47:22.012Z,21.9
2018-12-18T12:48:24.440Z,21.9
2018-12-18T12:49:26.868Z,21.9
2018-12-18T12:50:28.768Z,21.9
2018-12-18T12:51:31.197Z,21.9
2018-12-18T12:52:33.650Z,21.9
2018-12-18T12:53:35.781Z,21.9
2018-12-18T12:54:38.208Z,21.9
2018-12-18T12:55:40.096Z,21.9
2018-12-18T12:56:42.253Z,21.9
2018-12-18T12:57:44.680Z,21.9
2018-12-18T12:58:46.844Z,21.9
2018-12-18T12:59:49.283Z,21.9
2018-12-18T13:00:51.700Z,21.9
2018-12-18T13:01:54.130Z,21.9
2018-12-18T13:02:56.562Z,21.9
2018-12-18T13:03:58.717Z,21.9
2018-12-18T13:05:00.587Z,21.9
2018-12-18T13:06:03.020Z,21.9
2018-12-18T13:07:05.452Z,21.9
2018-12-18T13:08:07.629Z,21.9
2018-12-18T13:09:10.060Z,21.9
2018-12-18T13:10:12.493Z,21.9
2018-12-18T13:11:14.915Z,21.9
2018-12-18T13:12:16.801Z,21.9
2018-12-18T13:13:19.230Z,21.9
2018-12-18T13:14:21.662Z,21.9
2018-12-18T13:15:24.086Z,21.9
2018-12-18T13:16:26.240Z,21.9
2018-12-18T13:17:28.668Z,21.9
2018-12-18T13:18:30.815Z,21.9
2018-12-18T13:19:33.239Z,21.9
2018-12-18T13:20:35.401Z,21.9
2018-12-18T13:21:37.847Z,21.9
2018-12-18T13:22:39.742Z,21.9
2018-12-18T13:23:42.172Z,21.9
2018-12-18T13:24:44.591Z,21.9
2018-12-18T13:25:47.021Z,21.9
2018-12-18T13:26:48.901Z,21.9
2018-12-18T13:27:51.070Z,21.9
2018-12-18T13:28:53.222Z,21.9
2018-12-18T13:29:55.667Z,21.9
2018-12-18T13:30:58.077Z,21.9
2018-12-18T13:31:59.945Z,21.9
2018-12-18T13:33:02.357Z,21.9
2018-12-18T13:34:04.772Z,21.9
2018-12-18T13:35:06.651Z,21.9
2018-12-18T13:36:08.818Z,21.9
2018-12-18T13:37:11.252Z,21.9
2018-12-18T13:38:13.676Z,21.9
2018-12-18T13:39:15.837Z,21.9
2018-12-18T13:40:17.981Z,21.9
2018-12-18T13:41:20.415Z,21.9
2018-12-18T13:42:22.633Z,21.9
2018-12-18T13:43:25.062Z,21.9
2018-12-18T13:44:27.206Z,21.9
2018-12-18T13:45:29.641Z,21.9
2018-12-18T13:46:32.071Z,21.9
2018-12-18T13:47:34.227Z,21.9
2018-12-18T13:48:36.655Z,21.9
2018-12-18T13:49:38.793Z,21.9
2018-12-18T13:50:41.221Z,21.9
2018-12-18T13:51:43.382Z,21.9
2018-12-18T13:52:45.542Z,21.9
2018-12-18T13:53:47.694Z,21.9
2018-12-18T13:54:49.849Z,21.9
2018-12-18T13:55:52.021Z,21.9
2018-12-18T13:56:54.173Z,21.9
2018-12-18T13:57:56.597Z,21.9